PWSweather.com
Personal Weather Stations
Station Observations
ITROMSHA6
HarstadNO 9407

HarstadNO 9407

Lat: 68.7814767, Lon: 16.5297091

Elevation: 145

Station Type: Davis Vantage Pro2

Latest ConditionsUpdated 8:55:16 AM GMT+01:01 Monday, Jun 17, 2019
Currently Today's Max Today's Min Today's Average
Temperature 55.9°F13.3°C 55.9°F13.3°C 47.2°F8.4°C 52.0°F11.1°C
Dew Point 44.8°F7.1°C 45.7°F7.6°C 42.6°F5.9°C 44.0°F6.7°C
Winds 4.0 mph ENE6.4 kmh ENE 7.0 mph -11.3 kmh - - 3.6 mph 5.8 kmh
Wind Gusts 8.0 mph12.9 kmh 9.0 mph14.5 kmh - -
Humidity 66% 84% 66% 74%
Pressure 29.79 in1008.8 mb 29.83 in1010.2 mb 29.78 in1008.5 mb -
Hour Temp Dew Point Humidity Winds Wind Gusts Pressure Precip Precip Rate Daily Precip Total
08:55 AM 55.9°F13.3°C 44.8°F7.1°C 66% 4.0 mph ENE6.4 kmh ENE 8.0 mph12.9 kmh 29.79 in1008.8 mb 0.00 in0.0 mm 0.00 in0.0 mm 0.00 in0.0 mm
08:50 AM 55.6°F13.1°C 45.1°F7.3°C 68% 4.0 mph ENE6.4 kmh ENE -- 29.79 in1008.8 mb 0.00 in0.0 mm 0.00 in0.0 mm 0.00 in0.0 mm
08:45 AM 55.6°F13.1°C 44.8°F7.1°C 67% 5.0 mph ENE8.0 kmh ENE -- 29.78 in1008.5 mb 0.00 in0.0 mm 0.00 in0.0 mm 0.00 in0.0 mm
08:40 AM 55.9°F13.3°C 45.1°F7.3°C 67% 3.0 mph ENE4.8 kmh ENE -- 29.79 in1008.8 mb 0.00 in0.0 mm 0.00 in0.0 mm 0.00 in0.0 mm
08:35 AM 55.7°F13.2°C 45.7°F7.6°C 69% 3.0 mph NNE4.8 kmh NNE -- 29.79 in1008.8 mb 0.00 in0.0 mm 0.00 in0.0 mm 0.00 in0.0 mm
08:30 AM 55.0°F12.8°C 45.1°F7.3°C 69% 3.0 mph NE4.8 kmh NE 6.0 mph9.7 kmh 29.79 in1008.8 mb 0.00 in0.0 mm 0.00 in0.0 mm 0.00 in0.0 mm
08:25 AM 55.4°F13.0°C 45.3°F7.4°C 69% 3.0 mph ENE4.8 kmh ENE -- 29.79 in1008.8 mb 0.00 in0.0 mm 0.00 in0.0 mm 0.00 in0.0 mm
08:20 AM 54.9°F12.7°C 45.3°F7.4°C 70% 4.0 mph ENE6.4 kmh ENE -- 29.79 in1008.8 mb 0.00 in0.0 mm 0.00 in0.0 mm 0.00 in0.0 mm
08:15 AM 54.6°F12.6°C 44.8°F7.1°C 69% 3.0 mph ENE4.8 kmh ENE -- 29.79 in1008.8 mb 0.00 in0.0 mm 0.00 in0.0 mm 0.00 in0.0 mm
08:10 AM 54.5°F12.5°C 45.0°F7.2°C 70% 3.0 mph NE4.8 kmh NE -- 29.78 in1008.5 mb 0.00 in0.0 mm 0.00 in0.0 mm 0.00 in0.0 mm
08:05 AM 54.5°F12.5°C 45.0°F7.2°C 70% 4.0 mph ENE6.4 kmh ENE 7.0 mph11.3 kmh 29.78 in1008.5 mb 0.00 in0.0 mm 0.00 in0.0 mm 0.00 in0.0 mm
08:00 AM 54.2°F12.3°C 44.6°F7.0°C 70% 3.0 mph ENE4.8 kmh ENE -- 29.79 in1008.8 mb 0.00 in0.0 mm 0.00 in0.0 mm 0.00 in0.0 mm
07:55 AM 54.3°F12.4°C 44.8°F7.1°C 70% 7.0 mph NE11.3 kmh NE -- 29.79 in1008.8 mb 0.00 in0.0 mm 0.00 in0.0 mm 0.00 in0.0 mm
07:50 AM 54.4°F12.4°C 44.4°F6.9°C 69% 4.0 mph ENE6.4 kmh ENE -- 29.79 in1008.8 mb 0.00 in0.0 mm 0.00 in0.0 mm 0.00 in0.0 mm
07:45 AM 54.4°F12.4°C 44.4°F6.9°C 69% 4.0 mph N6.4 kmh N -- 29.79 in1008.8 mb 0.00 in0.0 mm 0.00 in0.0 mm 0.00 in0.0 mm
07:40 AM 54.2°F12.3°C 44.2°F6.8°C 69% 4.0 mph NE6.4 kmh NE 7.0 mph11.3 kmh 29.78 in1008.5 mb 0.00 in0.0 mm 0.00 in0.0 mm 0.00 in0.0 mm
07:35 AM 54.5°F12.5°C 45.0°F7.2°C 70% 4.0 mph ENE6.4 kmh ENE -- 29.78 in1008.5 mb 0.00 in0.0 mm 0.00 in0.0 mm 0.00 in0.0 mm
07:30 AM 54.4°F12.4°C 45.1°F7.3°C 71% 5.0 mph ENE8.0 kmh ENE -- 29.78 in1008.5 mb 0.00 in0.0 mm 0.00 in0.0 mm 0.00 in0.0 mm
07:25 AM 54.6°F12.6°C 45.5°F7.5°C 71% 4.0 mph NE6.4 kmh NE -- 29.78 in1008.5 mb 0.00 in0.0 mm 0.00 in0.0 mm 0.00 in0.0 mm
07:20 AM 54.3°F12.4°C 45.1°F7.3°C 71% 4.0 mph ENE6.4 kmh ENE -- 29.78 in1008.5 mb 0.00 in0.0 mm 0.00 in0.0 mm 0.00 in0.0 mm
07:15 AM 54.3°F12.4°C 45.1°F7.3°C 71% 4.0 mph N6.4 kmh N 9.0 mph14.5 kmh 29.78 in1008.5 mb 0.00 in0.0 mm 0.00 in0.0 mm 0.00 in0.0 mm
07:10 AM 54.4°F12.4°C 45.1°F7.3°C 71% 7.0 mph NNE11.3 kmh NNE -- 29.78 in1008.5 mb 0.00 in0.0 mm 0.00 in0.0 mm 0.00 in0.0 mm
07:05 AM 54.6°F12.6°C 45.5°F7.5°C 71% 3.0 mph NNE4.8 kmh NNE -- 29.79 in1008.8 mb 0.00 in0.0 mm 0.00 in0.0 mm 0.00 in0.0 mm
07:00 AM 54.6°F12.6°C 45.1°F7.3°C 70% 5.0 mph NE8.0 kmh NE -- 29.79 in1008.8 mb 0.00 in0.0 mm 0.00 in0.0 mm 0.00 in0.0 mm
06:55 AM 54.1°F12.3°C 45.3°F7.4°C 72% 3.0 mph NE4.8 kmh NE -- 29.79 in1008.8 mb 0.00 in0.0 mm 0.00 in0.0 mm 0.00 in0.0 mm
06:50 AM 54.1°F12.3°C 45.0°F7.2°C 71% 5.0 mph NNE8.0 kmh NNE 6.0 mph9.7 kmh 29.79 in1008.8 mb 0.00 in0.0 mm 0.00 in0.0 mm 0.00 in0.0 mm
06:45 AM 53.7°F12.1°C 45.0°F7.2°C 72% 3.0 mph NE4.8 kmh NE -- 29.79 in1008.8 mb 0.00 in0.0 mm 0.00 in0.0 mm 0.00 in0.0 mm
06:40 AM 53.5°F11.9°C 44.2°F6.8°C 71% 5.0 mph NE8.0 kmh NE -- 29.79 in1008.8 mb 0.00 in0.0 mm 0.00 in0.0 mm 0.00 in0.0 mm
06:35 AM 53.4°F11.9°C 44.2°F6.8°C 71% 6.0 mph NE9.7 kmh NE -- 29.79 in1008.8 mb 0.00 in0.0 mm 0.00 in0.0 mm 0.00 in0.0 mm
06:30 AM 53.3°F11.8°C 44.1°F6.7°C 71% 3.0 mph NE4.8 kmh NE -- 29.79 in1008.8 mb 0.00 in0.0 mm 0.00 in0.0 mm 0.00 in0.0 mm
06:25 AM 53.1°F11.7°C 44.2°F6.8°C 72% Calm Calm 7.0 mph11.3 kmh 29.79 in1008.8 mb 0.00 in0.0 mm 0.00 in0.0 mm 0.00 in0.0 mm
06:20 AM 52.8°F11.6°C 44.4°F6.9°C 73% 5.0 mph NE8.0 kmh NE -- 29.79 in1008.8 mb 0.00 in0.0 mm 0.00 in0.0 mm 0.00 in0.0 mm
06:15 AM 52.7°F11.5°C 43.9°F6.6°C 72% 5.0 mph ENE8.0 kmh ENE -- 29.79 in1008.8 mb 0.00 in0.0 mm 0.00 in0.0 mm 0.00 in0.0 mm
06:10 AM 52.8°F11.6°C 44.4°F6.9°C 73% 5.0 mph NE8.0 kmh NE -- 29.79 in1008.8 mb 0.00 in0.0 mm 0.00 in0.0 mm 0.00 in0.0 mm
06:05 AM 52.8°F11.6°C 44.4°F6.9°C 73% 5.0 mph ENE8.0 kmh ENE -- 29.79 in1008.8 mb 0.00 in0.0 mm 0.00 in0.0 mm 0.00 in0.0 mm
06:00 AM 52.7°F11.5°C 44.6°F7.0°C 74% 5.0 mph NE8.0 kmh NE 7.0 mph11.3 kmh 29.79 in1008.8 mb 0.00 in0.0 mm 0.00 in0.0 mm 0.00 in0.0 mm
05:55 AM 52.7°F11.5°C 43.9°F6.6°C 72% 4.0 mph ENE6.4 kmh ENE -- 29.79 in1008.8 mb 0.00 in0.0 mm 0.00 in0.0 mm 0.00 in0.0 mm
05:50 AM 52.6°F11.4°C 43.3°F6.3°C 71% 4.0 mph NE6.4 kmh NE -- 29.79 in1008.8 mb 0.00 in0.0 mm 0.00 in0.0 mm 0.00 in0.0 mm
05:45 AM 52.8°F11.6°C 44.1°F6.7°C 72% 4.0 mph ENE6.4 kmh ENE -- 29.79 in1008.8 mb 0.00 in0.0 mm 0.00 in0.0 mm 0.00 in0.0 mm
05:40 AM 52.8°F11.6°C 44.1°F6.7°C 72% 5.0 mph NE8.0 kmh NE -- 29.79 in1008.8 mb 0.00 in0.0 mm 0.00 in0.0 mm 0.00 in0.0 mm
05:35 AM 53.1°F11.7°C 44.2°F6.8°C 72% 6.0 mph NE9.7 kmh NE 7.0 mph11.3 kmh 29.79 in1008.8 mb 0.00 in0.0 mm 0.00 in0.0 mm 0.00 in0.0 mm
05:30 AM 53.5°F11.9°C 45.0°F7.2°C 73% 4.0 mph ENE6.4 kmh ENE -- 29.79 in1008.8 mb 0.00 in0.0 mm 0.00 in0.0 mm 0.00 in0.0 mm
05:25 AM 53.1°F11.7°C 44.6°F7.0°C 73% 2.0 mph E3.2 kmh E -- 29.79 in1008.8 mb 0.00 in0.0 mm 0.00 in0.0 mm 0.00 in0.0 mm
05:20 AM 53.1°F11.7°C 44.6°F7.0°C 73% 5.0 mph ESE8.0 kmh ESE -- 29.79 in1008.8 mb 0.00 in0.0 mm 0.00 in0.0 mm 0.00 in0.0 mm
05:15 AM 53.0°F11.7°C 45.0°F7.2°C 74% 3.0 mph NE4.8 kmh NE -- 29.79 in1008.8 mb 0.00 in0.0 mm 0.00 in0.0 mm 0.00 in0.0 mm
05:10 AM 53.0°F11.7°C 44.2°F6.8°C 72% 5.0 mph NE8.0 kmh NE 7.0 mph11.3 kmh 29.79 in1008.8 mb 0.00 in0.0 mm 0.00 in0.0 mm 0.00 in0.0 mm
05:05 AM 52.8°F11.6°C 44.1°F6.7°C 72% 4.0 mph NE6.4 kmh NE -- 29.79 in1008.8 mb 0.00 in0.0 mm 0.00 in0.0 mm 0.00 in0.0 mm
05:00 AM 53.0°F11.7°C 44.2°F6.8°C 72% 5.0 mph NNE8.0 kmh NNE -- 29.79 in1008.8 mb 0.00 in0.0 mm 0.00 in0.0 mm 0.00 in0.0 mm
04:55 AM 53.1°F11.7°C 44.6°F7.0°C 73% 5.0 mph ENE8.0 kmh ENE -- 29.79 in1008.8 mb 0.00 in0.0 mm 0.00 in0.0 mm 0.00 in0.0 mm
04:50 AM 53.0°F11.7°C 44.2°F6.8°C 72% 2.0 mph ENE3.2 kmh ENE -- 29.79 in1008.8 mb 0.00 in0.0 mm 0.00 in0.0 mm 0.00 in0.0 mm
04:45 AM 52.7°F11.5°C 43.9°F6.6°C 72% 3.0 mph NW4.8 kmh NW 7.0 mph11.3 kmh 29.79 in1008.8 mb 0.00 in0.0 mm 0.00 in0.0 mm 0.00 in0.0 mm
04:40 AM 52.9°F11.6°C 44.1°F6.7°C 72% 4.0 mph NNE6.4 kmh NNE -- 29.79 in1008.8 mb 0.00 in0.0 mm 0.00 in0.0 mm 0.00 in0.0 mm
04:35 AM 52.8°F11.6°C 44.4°F6.9°C 73% 4.0 mph NE6.4 kmh NE -- 29.79 in1008.8 mb 0.00 in0.0 mm 0.00 in0.0 mm 0.00 in0.0 mm
04:30 AM 52.8°F11.6°C 44.4°F6.9°C 73% 5.0 mph NE8.0 kmh NE -- 29.79 in1008.8 mb 0.00 in0.0 mm 0.00 in0.0 mm 0.00 in0.0 mm
04:25 AM 52.9°F11.6°C 44.1°F6.7°C 72% 5.0 mph NE8.0 kmh NE -- 29.80 in1009.1 mb 0.00 in0.0 mm 0.00 in0.0 mm 0.00 in0.0 mm
04:20 AM 52.8°F11.6°C 44.1°F6.7°C 72% 1.0 mph N1.6 kmh N 7.0 mph11.3 kmh 29.80 in1009.1 mb 0.00 in0.0 mm 0.00 in0.0 mm 0.00 in0.0 mm
04:15 AM 52.7°F11.5°C 44.2°F6.8°C 73% 1.0 mph NNE1.6 kmh NNE -- 29.80 in1009.1 mb 0.00 in0.0 mm 0.00 in0.0 mm 0.00 in0.0 mm
04:10 AM 52.5°F11.4°C 43.7°F6.5°C 72% 6.0 mph NNW9.7 kmh NNW -- 29.80 in1009.1 mb 0.00 in0.0 mm 0.00 in0.0 mm 0.00 in0.0 mm
04:05 AM 52.7°F11.5°C 43.5°F6.4°C 71% 4.0 mph N6.4 kmh N -- 29.80 in1009.1 mb 0.00 in0.0 mm 0.00 in0.0 mm 0.00 in0.0 mm
04:00 AM 52.7°F11.5°C 43.9°F6.6°C 72% 5.0 mph NE8.0 kmh NE -- 29.80 in1009.1 mb 0.00 in0.0 mm 0.00 in0.0 mm 0.00 in0.0 mm
03:55 AM 52.9°F11.6°C 43.3°F6.3°C 70% 4.0 mph NW6.4 kmh NW 7.0 mph11.3 kmh 29.80 in1009.1 mb 0.00 in0.0 mm 0.00 in0.0 mm 0.00 in0.0 mm
03:50 AM 52.8°F11.6°C 43.7°F6.5°C 71% 2.0 mph NE3.2 kmh NE -- 29.80 in1009.1 mb 0.00 in0.0 mm 0.00 in0.0 mm 0.00 in0.0 mm
03:45 AM 52.5°F11.4°C 43.3°F6.3°C 71% Calm Calm -- 29.80 in1009.1 mb 0.00 in0.0 mm 0.00 in0.0 mm 0.00 in0.0 mm
03:40 AM 52.5°F11.4°C 43.3°F6.3°C 71% 1.0 mph N1.6 kmh N -- 29.80 in1009.1 mb 0.00 in0.0 mm 0.00 in0.0 mm 0.00 in0.0 mm
03:35 AM 52.5°F11.4°C 43.7°F6.5°C 72% 3.0 mph NE4.8 kmh NE -- 29.80 in1009.1 mb 0.00 in0.0 mm 0.00 in0.0 mm 0.00 in0.0 mm
03:30 AM 52.4°F11.3°C 43.2°F6.2°C 71% 3.0 mph NNW4.8 kmh NNW 8.0 mph12.9 kmh 29.80 in1009.1 mb 0.00 in0.0 mm 0.00 in0.0 mm 0.00 in0.0 mm
03:25 AM 52.5°F11.4°C 43.3°F6.3°C 71% 2.0 mph N3.2 kmh N -- 29.81 in1009.5 mb 0.00 in0.0 mm 0.00 in0.0 mm 0.00 in0.0 mm
03:20 AM 52.6°F11.4°C 43.3°F6.3°C 71% 1.0 mph NNE1.6 kmh NNE -- 29.81 in1009.5 mb 0.00 in0.0 mm 0.00 in0.0 mm 0.00 in0.0 mm
03:15 AM 52.5°F11.4°C 44.1°F6.7°C 73% 3.0 mph NNE4.8 kmh NNE -- 29.81 in1009.5 mb 0.00 in0.0 mm 0.00 in0.0 mm 0.00 in0.0 mm
03:10 AM 52.1°F11.2°C 44.1°F6.7°C 74% 2.0 mph NNW3.2 kmh NNW -- 29.81 in1009.5 mb 0.00 in0.0 mm 0.00 in0.0 mm 0.00 in0.0 mm
03:05 AM 51.8°F11.0°C 43.7°F6.5°C 74% 2.0 mph NW3.2 kmh NW 4.0 mph6.4 kmh 29.81 in1009.5 mb 0.00 in0.0 mm 0.00 in0.0 mm 0.00 in0.0 mm
03:00 AM 51.4°F10.8°C 43.7°F6.5°C 75% Calm Calm -- 29.81 in1009.5 mb 0.00 in0.0 mm 0.00 in0.0 mm 0.00 in0.0 mm
02:55 AM 51.2°F10.7°C 43.5°F6.4°C 75% 2.0 mph NNW3.2 kmh NNW -- 29.81 in1009.5 mb 0.00 in0.0 mm 0.00 in0.0 mm 0.00 in0.0 mm
02:50 AM 50.9°F10.5°C 43.5°F6.4°C 76% Calm Calm -- 29.81 in1009.5 mb 0.00 in0.0 mm 0.00 in0.0 mm 0.00 in0.0 mm
02:45 AM 50.4°F10.2°C 43.3°F6.3°C 77% 4.0 mph NW6.4 kmh NW -- 29.81 in1009.5 mb 0.00 in0.0 mm 0.00 in0.0 mm 0.00 in0.0 mm
02:40 AM 49.9°F9.9°C 43.2°F6.2°C 78% 4.0 mph W6.4 kmh W 4.0 mph6.4 kmh 29.81 in1009.5 mb 0.00 in0.0 mm 0.00 in0.0 mm 0.00 in0.0 mm
02:35 AM 50.1°F10.1°C 43.5°F6.4°C 78% 3.0 mph WSW4.8 kmh WSW -- 29.81 in1009.5 mb 0.00 in0.0 mm 0.00 in0.0 mm 0.00 in0.0 mm
02:30 AM 50.0°F10.0°C 43.3°F6.3°C 78% 1.0 mph WNW1.6 kmh WNW -- 29.81 in1009.5 mb 0.00 in0.0 mm 0.00 in0.0 mm 0.00 in0.0 mm
02:25 AM 49.8°F9.9°C 43.5°F6.4°C 79% Calm Calm -- 29.81 in1009.5 mb 0.00 in0.0 mm 0.00 in0.0 mm 0.00 in0.0 mm
02:20 AM 49.8°F9.9°C 43.2°F6.2°C 78% 3.0 mph WSW4.8 kmh WSW -- 29.81 in1009.5 mb 0.00 in0.0 mm 0.00 in0.0 mm 0.00 in0.0 mm
02:15 AM 50.0°F10.0°C 43.3°F6.3°C 78% 3.0 mph WSW4.8 kmh WSW 5.0 mph8.0 kmh 29.82 in1009.8 mb 0.00 in0.0 mm 0.00 in0.0 mm 0.00 in0.0 mm
02:10 AM 50.1°F10.1°C 43.5°F6.4°C 78% 2.0 mph W3.2 kmh W -- 29.82 in1009.8 mb 0.00 in0.0 mm 0.00 in0.0 mm 0.00 in0.0 mm
02:05 AM 49.7°F9.8°C 43.3°F6.3°C 79% 5.0 mph NNW8.0 kmh NNW -- 29.82 in1009.8 mb 0.00 in0.0 mm 0.00 in0.0 mm 0.00 in0.0 mm
02:00 AM 49.7°F9.8°C 43.3°F6.3°C 79% 2.0 mph W3.2 kmh W -- 29.82 in1009.8 mb 0.00 in0.0 mm 0.00 in0.0 mm 0.00 in0.0 mm
01:55 AM 49.5°F9.7°C 43.2°F6.2°C 79% Calm Calm -- 29.82 in1009.8 mb 0.00 in0.0 mm 0.00 in0.0 mm 0.00 in0.0 mm
01:50 AM 49.4°F9.7°C 43.2°F6.2°C 79% 3.0 mph W4.8 kmh W 4.0 mph6.4 kmh 29.82 in1009.8 mb 0.00 in0.0 mm 0.00 in0.0 mm 0.00 in0.0 mm
01:45 AM 49.2°F9.6°C 43.3°F6.3°C 80% 1.0 mph WNW1.6 kmh WNW -- 29.82 in1009.8 mb 0.00 in0.0 mm 0.00 in0.0 mm 0.00 in0.0 mm
01:40 AM 48.8°F9.3°C 43.2°F6.2°C 81% 2.0 mph W3.2 kmh W -- 29.82 in1009.8 mb 0.00 in0.0 mm 0.00 in0.0 mm 0.00 in0.0 mm
01:35 AM 48.5°F9.2°C 43.0°F6.1°C 81% 4.0 mph WSW6.4 kmh WSW -- 29.82 in1009.8 mb 0.00 in0.0 mm 0.00 in0.0 mm 0.00 in0.0 mm
01:30 AM 48.6°F9.2°C 43.0°F6.1°C 81% 4.0 mph WSW6.4 kmh WSW -- 29.82 in1009.8 mb 0.00 in0.0 mm 0.00 in0.0 mm 0.00 in0.0 mm
01:25 AM 48.7°F9.3°C 43.2°F6.2°C 81% 4.0 mph WSW6.4 kmh WSW 5.0 mph8.0 kmh 29.82 in1009.8 mb 0.00 in0.0 mm 0.00 in0.0 mm 0.00 in0.0 mm
01:20 AM 48.3°F9.1°C 42.8°F6.0°C 81% 4.0 mph W6.4 kmh W -- 29.82 in1009.8 mb 0.00 in0.0 mm 0.00 in0.0 mm 0.00 in0.0 mm
01:10 AM 48.3°F9.1°C 43.2°F6.2°C 82% 3.0 mph W4.8 kmh W -- 29.82 in1009.8 mb 0.00 in0.0 mm 0.00 in0.0 mm 0.00 in0.0 mm
01:05 AM 48.4°F9.1°C 43.2°F6.2°C 82% 5.0 mph WSW8.0 kmh WSW -- 29.82 in1009.8 mb 0.00 in0.0 mm 0.00 in0.0 mm 0.00 in0.0 mm
01:00 AM 48.0°F8.9°C 42.8°F6.0°C 82% 3.0 mph WSW4.8 kmh WSW 6.0 mph9.7 kmh 29.82 in1009.8 mb 0.00 in0.0 mm 0.00 in0.0 mm 0.00 in0.0 mm
12:55 AM 48.3°F9.1°C 42.8°F6.0°C 81% 5.0 mph WSW8.0 kmh WSW -- 29.82 in1009.8 mb 0.00 in0.0 mm 0.00 in0.0 mm 0.00 in0.0 mm
12:50 AM 47.9°F8.8°C 43.0°F6.1°C 83% 3.0 mph W4.8 kmh W -- 29.82 in1009.8 mb 0.00 in0.0 mm 0.00 in0.0 mm 0.00 in0.0 mm
12:45 AM 48.0°F8.9°C 42.8°F6.0°C 82% 5.0 mph WSW8.0 kmh WSW -- 29.82 in1009.8 mb 0.00 in0.0 mm 0.00 in0.0 mm 0.00 in0.0 mm
12:40 AM 47.9°F8.8°C 43.0°F6.1°C 83% 5.0 mph WSW8.0 kmh WSW -- 29.82 in1009.8 mb 0.00 in0.0 mm 0.00 in0.0 mm 0.00 in0.0 mm
12:35 AM 47.5°F8.6°C 43.0°F6.1°C 84% 4.0 mph W6.4 kmh W 7.0 mph11.3 kmh 29.82 in1009.8 mb 0.00 in0.0 mm 0.00 in0.0 mm 0.00 in0.0 mm
12:30 AM 47.6°F8.7°C 42.8°F6.0°C 83% 5.0 mph WSW8.0 kmh WSW -- 29.82 in1009.8 mb 0.00 in0.0 mm 0.00 in0.0 mm 0.00 in0.0 mm
12:25 AM 47.5°F8.6°C 43.0°F6.1°C 84% 7.0 mph WSW11.3 kmh WSW -- 29.82 in1009.8 mb 0.00 in0.0 mm 0.00 in0.0 mm 0.00 in0.0 mm
12:20 AM 47.3°F8.5°C 42.8°F6.0°C 84% 5.0 mph WSW8.0 kmh WSW -- 29.82 in1009.8 mb 0.00 in0.0 mm 0.00 in0.0 mm 0.00 in0.0 mm
12:15 AM 47.2°F8.4°C 42.6°F5.9°C 84% 6.0 mph WSW9.7 kmh WSW -- 29.82 in1009.8 mb 0.00 in0.0 mm 0.00 in0.0 mm 0.00 in0.0 mm
12:10 AM 47.5°F8.6°C 42.6°F5.9°C 83% 4.0 mph WSW6.4 kmh WSW 6.0 mph9.7 kmh 29.82 in1009.8 mb 0.00 in0.0 mm 0.00 in0.0 mm 0.00 in0.0 mm
12:05 AM 47.8°F8.8°C 43.0°F6.1°C 83% 5.0 mph WSW8.0 kmh WSW -- 29.83 in1010.2 mb 0.00 in0.0 mm 0.00 in0.0 mm 0.00 in0.0 mm
12:00 AM 47.8°F8.8°C 42.6°F5.9°C 82% 5.0 mph W8.0 kmh W -- 29.83 in1010.2 mb 0.00 in0.0 mm 0.00 in0.0 mm 0.00 in0.0 mm